createdAt,value
2019-03-06T00:00:49.658Z,5.18
2019-03-06T00:03:25.813Z,5.22
2019-03-06T00:06:00.250Z,5.13
2019-03-06T00:08:34.723Z,5.15
2019-03-06T00:11:09.252Z,5.21
2019-03-06T00:13:43.640Z,5.16
2019-03-06T00:16:18.141Z,5.21
2019-03-06T00:18:52.659Z,5.16
2019-03-06T00:21:27.092Z,5.16
2019-03-06T00:24:01.371Z,5.25
2019-03-06T00:26:35.874Z,5.25
2019-03-06T00:29:09.857Z,5.27
2019-03-06T00:31:44.206Z,5.32
2019-03-06T00:34:18.682Z,5.16
2019-03-06T00:36:52.953Z,5.16
2019-03-06T00:39:30.399Z,5.20
2019-03-06T00:42:04.904Z,5.23
2019-03-06T00:44:39.283Z,5.12
2019-03-06T00:47:13.761Z,5.12
2019-03-06T00:49:48.285Z,5.13
2019-03-06T00:52:22.688Z,5.16
2019-03-06T00:54:57.124Z,5.17
2019-03-06T00:57:31.695Z,5.10
2019-03-06T01:00:06.771Z,5.10
2019-03-06T01:02:40.875Z,5.22
2019-03-06T01:05:14.128Z,5.19
2019-03-06T01:07:48.820Z,5.22
2019-03-06T01:10:22.115Z,5.22
2019-03-06T01:12:56.290Z,5.20
2019-03-06T01:15:30.726Z,5.32
2019-03-06T01:18:05.095Z,5.35
2019-03-06T01:20:39.338Z,5.15
2019-03-06T01:23:13.790Z,5.15
2019-03-06T01:25:48.739Z,5.16
2019-03-06T01:28:23.285Z,5.16
2019-03-06T01:30:57.727Z,5.15
2019-03-06T01:33:50.731Z,5.01
2019-03-06T01:36:49.891Z,4.94
2019-03-06T01:39:47.118Z,4.90
2019-03-06T01:42:58.674Z,4.90
2019-03-06T01:45:33.287Z,4.91
2019-03-06T01:48:07.812Z,4.90
2019-03-06T01:50:42.491Z,4.93
2019-03-06T01:53:17.133Z,4.93
2019-03-06T01:55:51.684Z,4.81
2019-03-06T01:58:26.094Z,4.81
2019-03-06T02:01:00.754Z,4.82
2019-03-06T02:03:35.147Z,4.82
2019-03-06T02:06:09.955Z,4.84
2019-03-06T02:08:44.684Z,4.77
2019-03-06T02:11:18.951Z,4.77
2019-03-06T02:13:53.341Z,4.87
2019-03-06T02:16:28.136Z,4.87
2019-03-06T02:19:03.649Z,5.02
2019-03-06T02:21:37.951Z,5.02
2019-03-06T02:24:12.282Z,5.09
2019-03-06T02:26:46.729Z,5.04
2019-03-06T02:29:21.129Z,5.04
2019-03-06T02:31:55.701Z,4.95
2019-03-06T02:34:30.111Z,4.95
2019-03-06T02:37:04.682Z,5.01
2019-03-06T02:39:39.088Z,5.01
2019-03-06T02:42:13.364Z,4.95
2019-03-06T02:44:47.971Z,4.95
2019-03-06T02:47:22.347Z,4.94
2019-03-06T02:49:56.738Z,4.94
2019-03-06T02:52:31.293Z,4.82
2019-03-06T02:55:05.888Z,4.87
2019-03-06T02:57:40.408Z,4.88
2019-03-06T03:00:53.962Z,4.86
2019-03-06T03:03:46.267Z,4.66
2019-03-06T03:06:26.500Z,4.66
2019-03-06T03:09:00.964Z,4.52
2019-03-06T03:11:37.122Z,4.45
2019-03-06T03:14:11.649Z,4.36
2019-03-06T03:16:46.115Z,4.36
2019-03-06T03:19:20.644Z,4.44
2019-03-06T03:21:54.965Z,4.44
2019-03-06T03:24:29.335Z,4.60
2019-03-06T03:27:03.725Z,4.60
2019-03-06T03:29:38.110Z,4.61
2019-03-06T03:32:12.640Z,4.64
2019-03-06T03:34:46.957Z,4.64
2019-03-06T03:37:21.306Z,4.70
2019-03-06T03:39:55.778Z,4.69
2019-03-06T03:42:28.685Z,4.73
2019-03-06T03:45:02.981Z,4.67
2019-03-06T03:47:37.467Z,4.58
2019-03-06T03:50:12.352Z,4.58
2019-03-06T03:52:46.924Z,4.36
2019-03-06T03:55:21.341Z,4.22
2019-03-06T03:57:55.736Z,4.22
2019-03-06T04:00:30.290Z,4.12
2019-03-06T04:03:04.820Z,4.06
2019-03-06T04:05:39.145Z,4.02
2019-03-06T04:08:13.680Z,4.06
2019-03-06T04:10:47.956Z,4.06
2019-03-06T04:13:21.038Z,4.17
2019-03-06T04:15:53.789Z,4.28
2019-03-06T04:18:27.945Z,4.35
2019-03-06T04:21:00.703Z,4.44
2019-03-06T04:23:34.889Z,4.38
2019-03-06T04:26:07.674Z,4.52
2019-03-06T04:28:41.880Z,4.52
2019-03-06T04:31:14.842Z,4.51
2019-03-06T04:33:48.957Z,4.47
2019-03-06T04:36:23.662Z,4.26
2019-03-06T04:38:58.129Z,4.26
2019-03-06T04:41:32.745Z,4.27
2019-03-06T04:44:07.133Z,4.32
2019-03-06T04:46:41.700Z,4.36
2019-03-06T04:49:16.119Z,4.41
2019-03-06T04:51:50.668Z,4.25
2019-03-06T04:54:24.909Z,4.25
2019-03-06T04:57:00.285Z,4.26
2019-03-06T04:59:34.889Z,4.25
2019-03-06T05:02:07.865Z,4.22
2019-03-06T05:04:42.113Z,4.17
2019-03-06T05:07:16.290Z,4.17
2019-03-06T05:09:50.728Z,4.17
2019-03-06T05:12:25.124Z,4.19
2019-03-06T05:14:59.671Z,4.12
2019-03-06T05:17:58.452Z,4.24
2019-03-06T05:20:32.946Z,4.12
2019-03-06T05:23:05.860Z,4.23
2019-03-06T05:25:40.128Z,4.20
2019-03-06T05:28:14.621Z,4.15
2019-03-06T05:30:49.112Z,4.15
2019-03-06T05:33:23.677Z,4.28
2019-03-06T05:36:42.702Z,4.28
2019-03-06T05:39:16.948Z,4.32
2019-03-06T05:41:50.949Z,4.27
2019-03-06T05:44:25.316Z,4.16
2019-03-06T05:46:59.936Z,4.16
2019-03-06T05:49:33.019Z,4.12
2019-03-06T05:52:07.073Z,4.14
2019-03-06T05:54:41.371Z,4.29
2019-03-06T05:57:17.294Z,4.29
2019-03-06T05:59:52.133Z,4.32
2019-03-06T06:02:27.976Z,4.36
2019-03-06T06:05:03.143Z,4.43
2019-03-06T06:07:37.744Z,4.49
2019-03-06T06:10:47.760Z,4.42
2019-03-06T06:13:22.338Z,4.42
2019-03-06T06:17:50.690Z,4.68
2019-03-06T06:20:25.277Z,4.75
2019-03-06T06:23:20.904Z,4.84
2019-03-06T06:25:54.271Z,4.97
2019-03-06T06:28:28.682Z,5.12
2019-03-06T06:31:03.284Z,5.12
2019-03-06T06:33:37.909Z,5.17
2019-03-06T06:36:11.282Z,5.24
2019-03-06T06:38:45.698Z,5.26
2019-03-06T06:41:20.320Z,5.26
2019-03-06T06:43:54.892Z,5.54
2019-03-06T06:46:29.653Z,5.54
2019-03-06T06:49:03.645Z,5.67
2019-03-06T06:52:37.103Z,5.84
2019-03-06T06:56:04.276Z,5.94
2019-03-06T06:59:21.065Z,6.08
2019-03-06T07:03:02.557Z,6.40
2019-03-06T07:05:51.075Z,6.40
2019-03-06T07:08:43.275Z,6.76
2019-03-06T07:11:32.273Z,6.76
2019-03-06T07:14:34.932Z,7.15
2019-03-06T07:17:22.932Z,7.35
2019-03-06T07:20:12.236Z,7.56
2019-03-06T07:22:54.662Z,7.86
2019-03-06T07:25:47.739Z,8.18
2019-03-06T07:28:26.272Z,8.76
2019-03-06T07:31:20.470Z,9.99
2019-03-06T07:34:16.863Z,9.99
2019-03-06T07:36:58.653Z,10.59
2019-03-06T07:39:50.898Z,11.15
2019-03-06T07:42:46.757Z,11.69
2019-03-06T07:46:00.096Z,12.05
2019-03-06T07:49:00.274Z,12.62
2019-03-06T07:51:50.077Z,13.01
2019-03-06T07:54:43.273Z,13.52
2019-03-06T07:57:35.093Z,13.52
2019-03-06T08:00:22.745Z,13.62
2019-03-06T08:03:13.045Z,14.18
2019-03-06T08:05:47.393Z,14.83
2019-03-06T08:08:21.940Z,15.60
2019-03-06T08:10:57.584Z,15.96
2019-03-06T08:13:40.297Z,15.62
2019-03-06T08:16:28.947Z,15.63
2019-03-06T08:19:34.620Z,15.16
2019-03-06T08:22:16.716Z,15.46
2019-03-06T08:25:28.275Z,16.41
2019-03-06T08:28:03.249Z,16.71
2019-03-06T08:30:40.276Z,17.33
2019-03-06T08:33:18.290Z,17.37
2019-03-06T08:35:51.321Z,16.31
2019-03-06T08:38:25.946Z,16.60
2019-03-06T08:41:04.508Z,17.39
2019-03-06T08:43:36.946Z,17.89
2019-03-06T08:46:30.277Z,18.05
2019-03-06T08:49:31.272Z,18.05
2019-03-06T08:52:17.274Z,18.63
2019-03-06T08:55:28.698Z,20.07
2019-03-06T08:58:18.675Z,19.95
2019-03-06T09:01:24.266Z,19.94
2019-03-06T09:04:08.273Z,19.28
2019-03-06T09:06:58.739Z,19.28
2019-03-06T09:09:40.110Z,19.33
2019-03-06T09:12:39.275Z,19.06
2019-03-06T09:15:45.444Z,19.06
2019-03-06T09:18:29.599Z,18.98
2019-03-06T09:21:19.407Z,19.30
2019-03-06T09:24:04.634Z,19.92
2019-03-06T09:27:10.403Z,20.30
2019-03-06T09:30:22.264Z,19.74
2019-03-06T09:33:04.385Z,19.80
2019-03-06T09:35:57.508Z,20.00
2019-03-06T09:38:50.507Z,19.49
2019-03-06T09:41:46.941Z,19.49
2019-03-06T09:44:38.932Z,19.37
2019-03-06T09:47:22.569Z,19.37
2019-03-06T09:50:12.312Z,18.70
2019-03-06T09:53:08.591Z,18.70
2019-03-06T09:56:17.459Z,18.74
2019-03-06T09:59:19.733Z,19.11
2019-03-06T10:02:12.781Z,19.11
2019-03-06T10:04:57.275Z,19.09
2019-03-06T10:07:49.491Z,19.09
2019-03-06T10:10:47.558Z,18.85
2019-03-06T10:13:42.181Z,19.17
2019-03-06T10:16:32.945Z,19.08
2019-03-06T10:19:16.759Z,19.08
2019-03-06T10:21:50.125Z,18.84
2019-03-06T10:24:24.659Z,19.28
2019-03-06T10:26:58.062Z,19.28
2019-03-06T10:29:33.234Z,18.91
2019-03-06T10:32:07.941Z,18.64
2019-03-06T10:34:42.628Z,19.23
2019-03-06T10:37:18.123Z,19.23
2019-03-06T10:39:53.176Z,19.99
2019-03-06T10:42:28.248Z,19.98
2019-03-06T10:45:02.939Z,20.11
2019-03-06T10:47:38.936Z,19.96
2019-03-06T10:50:26.020Z,20.36
2019-03-06T10:52:53.333Z,20.36
2019-03-06T10:55:27.945Z,20.00
2019-03-06T10:58:04.278Z,19.69
2019-03-06T11:00:46.539Z,19.11
2019-03-06T11:03:23.768Z,19.48
2019-03-06T11:05:57.042Z,19.48
2019-03-06T11:08:31.668Z,19.42
2019-03-06T11:11:05.431Z,19.81
2019-03-06T11:13:41.276Z,20.09
2019-03-06T11:16:17.962Z,20.09
2019-03-06T11:18:52.894Z,19.80
2019-03-06T11:21:27.670Z,19.91
2019-03-06T11:24:02.309Z,20.84
2019-03-06T11:26:37.306Z,20.84
2019-03-06T11:29:13.281Z,20.87
2019-03-06T11:31:49.671Z,20.87
2019-03-06T11:34:24.028Z,20.43
2019-03-06T11:36:58.774Z,21.21
2019-03-06T11:39:32.351Z,21.67
2019-03-06T11:42:07.324Z,21.56
2019-03-06T11:44:41.949Z,21.83
2019-03-06T11:47:16.678Z,21.78
2019-03-06T11:49:50.279Z,22.12
2019-03-06T11:52:24.710Z,21.51
2019-03-06T11:55:05.957Z,21.51
2019-03-06T11:57:33.424Z,21.11
2019-03-06T12:00:19.367Z,21.11
2019-03-06T12:02:55.251Z,21.06
2019-03-06T12:05:31.419Z,21.05
2019-03-06T12:08:08.740Z,20.12
2019-03-06T12:10:43.940Z,19.61
2019-03-06T12:13:19.646Z,18.74
2019-03-06T12:15:54.717Z,18.74
2019-03-06T12:18:29.747Z,19.46
2019-03-06T12:21:03.108Z,19.46
2019-03-06T12:23:37.659Z,20.66
2019-03-06T12:26:12.672Z,20.66
2019-03-06T12:28:46.284Z,21.21
2019-03-06T12:31:21.359Z,22.29
2019-03-06T12:33:56.103Z,23.40
2019-03-06T12:36:30.731Z,24.67
2019-03-06T12:39:07.616Z,24.67
2019-03-06T12:41:45.679Z,24.94
2019-03-06T12:44:20.507Z,25.10
2019-03-06T12:46:57.683Z,25.34
2019-03-06T12:49:32.278Z,25.16
2019-03-06T12:52:06.947Z,24.63
2019-03-06T12:54:41.348Z,24.61
2019-03-06T12:57:16.280Z,25.57
2019-03-06T12:59:51.287Z,25.57
2019-03-06T13:02:26.269Z,25.36
2019-03-06T13:05:00.953Z,25.43
2019-03-06T13:07:35.877Z,25.51
2019-03-06T13:10:12.327Z,26.00
2019-03-06T13:12:48.273Z,26.09
2019-03-06T13:15:25.385Z,26.19
2019-03-06T13:17:59.070Z,26.47
2019-03-06T13:20:33.503Z,25.65
2019-03-06T13:23:09.254Z,25.12
2019-03-06T13:25:44.941Z,25.43
2019-03-06T13:28:21.829Z,25.26
2019-03-06T13:30:56.792Z,24.47
2019-03-06T13:33:50.129Z,24.47
2019-03-06T13:36:25.280Z,24.64
2019-03-06T13:39:06.314Z,24.91
2019-03-06T13:41:37.735Z,24.98
2019-03-06T13:44:10.860Z,25.23
2019-03-06T13:46:45.392Z,24.90
2019-03-06T13:49:22.314Z,24.41
2019-03-06T13:51:57.268Z,24.12
2019-03-06T13:54:31.935Z,24.11
2019-03-06T13:57:07.304Z,23.99
2019-03-06T13:59:42.299Z,23.84
2019-03-06T14:02:17.416Z,23.18
2019-03-06T14:04:52.280Z,22.08
2019-03-06T14:07:27.334Z,21.77
2019-03-06T14:10:02.090Z,20.97
2019-03-06T14:12:36.864Z,20.55
2019-03-06T14:15:11.811Z,20.26
2019-03-06T14:17:45.308Z,19.55
2019-03-06T14:20:21.609Z,18.79
2019-03-06T14:22:55.272Z,18.16
2019-03-06T14:25:31.625Z,17.99
2019-03-06T14:28:06.283Z,17.87
2019-03-06T14:30:40.938Z,17.38
2019-03-06T14:33:16.891Z,17.27
2019-03-06T14:35:53.693Z,17.27
2019-03-06T14:38:27.095Z,17.48
2019-03-06T14:41:01.642Z,17.92
2019-03-06T14:43:35.083Z,17.72
2019-03-06T14:46:16.224Z,17.79
2019-03-06T14:48:45.274Z,17.66
2019-03-06T14:51:19.943Z,17.56
2019-03-06T14:53:54.723Z,18.31
2019-03-06T14:56:27.868Z,18.96
2019-03-06T14:59:00.869Z,18.96
2019-03-06T15:01:36.642Z,19.65
2019-03-06T15:04:11.279Z,19.82
2019-03-06T15:06:45.892Z,19.87
2019-03-06T15:09:29.414Z,19.78
2019-03-06T15:12:03.949Z,18.99
2019-03-06T15:14:38.757Z,18.51
2019-03-06T15:17:13.282Z,18.45
2019-03-06T15:19:47.733Z,19.38
2019-03-06T15:22:21.048Z,19.38
2019-03-06T15:24:55.673Z,20.09
2019-03-06T15:29:46.699Z,20.83
2019-03-06T15:32:20.366Z,20.97
2019-03-06T15:34:55.319Z,20.32
2019-03-06T15:37:30.277Z,20.32
2019-03-06T15:40:07.714Z,19.57
2019-03-06T15:42:41.280Z,19.57
2019-03-06T15:45:18.281Z,18.93
2019-03-06T15:47:53.275Z,18.66
2019-03-06T15:50:28.526Z,18.66
2019-03-06T15:53:05.291Z,17.52
2019-03-06T15:55:40.106Z,16.76
2019-03-06T15:58:14.751Z,15.88
2019-03-06T16:00:48.047Z,15.59
2019-03-06T16:03:22.670Z,15.59
2019-03-06T16:05:57.291Z,15.29
2019-03-06T16:08:32.274Z,15.11
2019-03-06T16:11:08.615Z,14.75
2019-03-06T16:13:43.269Z,14.48
2019-03-06T16:16:17.753Z,14.14
2019-03-06T16:19:46.683Z,13.88
2019-03-06T16:22:23.395Z,13.71
2019-03-06T16:24:58.202Z,13.66
2019-03-06T16:27:33.279Z,13.71
2019-03-06T16:30:10.751Z,13.56
2019-03-06T16:32:44.129Z,13.53
2019-03-06T16:36:28.748Z,13.37
2019-03-06T16:39:03.433Z,13.20
2019-03-06T16:41:40.076Z,13.20
2019-03-06T16:44:15.248Z,13.16
2019-03-06T16:46:50.289Z,13.16
2019-03-06T16:49:25.279Z,12.97
2019-03-06T16:52:00.623Z,13.08
2019-03-06T16:54:35.389Z,12.96
2019-03-06T16:57:10.311Z,12.96
2019-03-06T17:02:18.280Z,12.78
2019-03-06T17:04:53.950Z,12.65
2019-03-06T17:07:29.682Z,12.65
2019-03-06T17:10:06.318Z,12.54
2019-03-06T17:12:41.338Z,12.54
2019-03-06T17:15:17.854Z,12.53
2019-03-06T17:17:52.688Z,12.54
2019-03-06T17:23:13.868Z,12.45
2019-03-06T17:25:49.664Z,12.45
2019-03-06T17:28:26.547Z,12.42
2019-03-06T17:31:01.261Z,12.43
2019-03-06T17:35:30.688Z,12.49
2019-03-06T17:38:05.841Z,12.44
2019-03-06T17:40:40.684Z,12.43
2019-03-06T17:43:14.349Z,12.35
2019-03-06T17:45:47.863Z,12.29
2019-03-06T17:48:22.284Z,12.37
2019-03-06T17:50:56.791Z,12.34
2019-03-06T17:53:29.684Z,12.33
2019-03-06T17:56:04.108Z,12.33
2019-03-06T17:58:38.881Z,12.25
2019-03-06T18:01:17.647Z,12.24
2019-03-06T18:04:10.702Z,12.20
2019-03-06T18:06:45.392Z,12.27
2019-03-06T18:09:19.935Z,12.28
2019-03-06T18:11:55.274Z,12.31
2019-03-06T18:14:30.705Z,12.18
2019-03-06T18:17:03.679Z,12.13
2019-03-06T18:19:38.128Z,12.11
2019-03-06T18:22:12.695Z,12.11
2019-03-06T18:24:49.482Z,12.15
2019-03-06T18:27:26.529Z,12.15
2019-03-06T18:30:00.202Z,12.14
2019-03-06T18:32:34.866Z,12.20
2019-03-06T18:35:09.933Z,12.15
2019-03-06T18:37:45.063Z,12.11
2019-03-06T18:40:20.409Z,12.07
2019-03-06T18:42:55.283Z,12.07
2019-03-06T18:45:29.933Z,12.05
2019-03-06T18:48:04.287Z,11.97
2019-03-06T18:50:38.783Z,11.97
2019-03-06T18:53:12.043Z,11.98
2019-03-06T18:55:46.730Z,12.00
2019-03-06T18:58:21.289Z,11.97
2019-03-06T19:00:56.795Z,12.00
2019-03-06T19:03:32.781Z,12.02
2019-03-06T19:06:06.277Z,12.05
2019-03-06T19:08:40.740Z,12.04
2019-03-06T19:11:17.177Z,12.04
2019-03-06T19:13:50.426Z,12.12
2019-03-06T19:16:25.269Z,12.08
2019-03-06T19:18:59.751Z,12.08
2019-03-06T19:21:33.034Z,12.04
2019-03-06T19:24:08.383Z,12.02
2019-03-06T19:26:43.114Z,12.02
2019-03-06T19:29:17.690Z,12.03
2019-03-06T19:31:52.213Z,12.08
2019-03-06T19:34:27.105Z,12.11
2019-03-06T19:37:01.770Z,12.08
2019-03-06T19:39:36.391Z,12.14
2019-03-06T19:42:11.323Z,12.17
2019-03-06T19:44:45.942Z,12.16
2019-03-06T19:47:20.698Z,12.09
2019-03-06T19:52:17.065Z,12.30
2019-03-06T19:54:51.576Z,12.17
2019-03-06T19:57:32.382Z,12.22
2019-03-06T20:00:07.369Z,12.17
2019-03-06T20:02:43.811Z,12.15
2019-03-06T20:05:19.152Z,12.20
2019-03-06T20:07:53.941Z,12.20
2019-03-06T20:10:30.909Z,12.23
2019-03-06T20:13:03.992Z,12.22
2019-03-06T20:15:38.726Z,12.33
2019-03-06T20:18:13.653Z,12.31
2019-03-06T20:20:48.347Z,12.26
2019-03-06T20:23:22.972Z,12.24
2019-03-06T20:25:58.652Z,12.17
2019-03-06T20:28:33.748Z,12.17
2019-03-06T20:31:07.939Z,12.18
2019-03-06T20:33:45.502Z,12.26
2019-03-06T20:36:20.305Z,12.24
2019-03-06T20:38:55.130Z,12.28
2019-03-06T20:41:30.144Z,12.20
2019-03-06T20:44:05.116Z,12.14
2019-03-06T20:46:40.283Z,12.16
2019-03-06T20:49:14.992Z,12.14
2019-03-06T20:51:49.764Z,12.17
2019-03-06T20:54:23.016Z,12.19
2019-03-06T20:56:57.442Z,12.20
2019-03-06T20:59:31.938Z,12.24
2019-03-06T21:02:06.273Z,12.33
2019-03-06T21:04:40.989Z,12.32
2019-03-06T21:07:15.666Z,12.32
2019-03-06T21:09:50.306Z,12.32
2019-03-06T21:12:24.949Z,12.32
2019-03-06T21:14:59.728Z,12.40
2019-03-06T21:17:34.861Z,12.40
2019-03-06T21:20:10.622Z,12.34
2019-03-06T21:22:45.161Z,12.36
2019-03-06T21:25:21.106Z,12.36
2019-03-06T21:27:55.958Z,12.24
2019-03-06T21:30:38.479Z,12.21
2019-03-06T21:33:13.134Z,12.21
2019-03-06T21:35:47.944Z,12.17
2019-03-06T21:38:28.970Z,12.15
2019-03-06T21:41:03.308Z,12.24
2019-03-06T21:43:38.270Z,12.17
2019-03-06T21:46:12.700Z,12.09
2019-03-06T21:48:45.763Z,12.00
2019-03-06T21:51:20.138Z,12.00
2019-03-06T21:53:54.932Z,11.95
2019-03-06T21:56:29.684Z,11.93
2019-03-06T21:59:03.000Z,11.93
2019-03-06T22:01:37.298Z,11.93
2019-03-06T22:04:12.286Z,11.90
2019-03-06T22:06:47.136Z,11.90
2019-03-06T22:09:21.861Z,11.97
2019-03-06T22:11:56.331Z,12.05
2019-03-06T22:14:30.898Z,12.05
2019-03-06T22:17:04.011Z,11.97
2019-03-06T22:19:38.718Z,12.00
2019-03-06T22:22:13.289Z,11.97
2019-03-06T22:24:47.887Z,11.98
2019-03-06T22:27:21.042Z,11.98
2019-03-06T22:29:55.689Z,11.97
2019-03-06T22:32:28.878Z,11.97
2019-03-06T22:35:03.152Z,11.96
2019-03-06T22:37:37.664Z,11.92
2019-03-06T22:40:13.673Z,11.89
2019-03-06T22:42:48.114Z,11.81
2019-03-06T22:45:22.653Z,11.81
2019-03-06T22:47:55.709Z,11.81
2019-03-06T22:50:29.949Z,11.75
2019-03-06T22:53:04.321Z,11.73
2019-03-06T22:55:38.955Z,11.76
2019-03-06T22:58:13.343Z,11.76
2019-03-06T23:03:46.713Z,11.77
2019-03-06T23:06:19.711Z,11.70
2019-03-06T23:08:54.073Z,11.69
2019-03-06T23:11:28.878Z,11.79
2019-03-06T23:14:03.351Z,11.79
2019-03-06T23:16:37.945Z,11.74
2019-03-06T23:19:12.790Z,11.72
2019-03-06T23:21:45.657Z,11.75
2019-03-06T23:24:19.961Z,11.72
2019-03-06T23:26:54.326Z,11.72
2019-03-06T23:29:28.957Z,11.74
2019-03-06T23:33:08.712Z,11.81
2019-03-06T23:35:41.867Z,11.69
2019-03-06T23:38:14.874Z,11.73
2019-03-06T23:40:47.798Z,11.73
2019-03-06T23:43:22.293Z,11.71
2019-03-06T23:45:56.833Z,11.73
2019-03-06T23:48:30.110Z,11.74
2019-03-06T23:51:08.718Z,11.71
2019-03-06T23:53:53.006Z,11.71
2019-03-06T23:56:26.043Z,11.69
2019-03-06T23:58:58.867Z,11.67
